sensor_id;sensor_type;location;lat;lon;timestamp;P1;durP1;ratioP1;P2;durP2;ratioP2
6531;SDS011;3299;42.004;24.868;2022-10-30T00:00:52;3.45;;;1.88;;
6531;SDS011;3299;42.004;24.868;2022-10-30T00:03:17;1.77;;;1.67;;
6531;SDS011;3299;42.004;24.868;2022-10-30T00:05:44;2.17;;;1.98;;
6531;SDS011;3299;42.004;24.868;2022-10-30T00:08:13;2.13;;;1.67;;
6531;SDS011;3299;42.004;24.868;2022-10-30T00:10:40;1.92;;;1.60;;
6531;SDS011;3299;42.004;24.868;2022-10-30T00:13:06;2.15;;;1.95;;
6531;SDS011;3299;42.004;24.868;2022-10-30T00:15:32;2.55;;;2.13;;
6531;SDS011;3299;42.004;24.868;2022-10-30T00:17:57;2.40;;;2.20;;
6531;SDS011;3299;42.004;24.868;2022-10-30T00:20:23;1.88;;;1.73;;
6531;SDS011;3299;42.004;24.868;2022-10-30T00:22:48;2.17;;;1.85;;
6531;SDS011;3299;42.004;24.868;2022-10-30T00:25:14;2.05;;;1.77;;
6531;SDS011;3299;42.004;24.868;2022-10-30T00:27:39;2.17;;;1.98;;
6531;SDS011;3299;42.004;24.868;2022-10-30T00:30:05;5.63;;;2.00;;
6531;SDS011;3299;42.004;24.868;2022-10-30T00:32:31;2.60;;;2.40;;
6531;SDS011;3299;42.004;24.868;2022-10-30T00:34:56;1.75;;;1.65;;
6531;SDS011;3299;42.004;24.868;2022-10-30T00:37:21;2.00;;;1.90;;
6531;SDS011;3299;42.004;24.868;2022-10-30T00:39:47;1.95;;;1.85;;
6531;SDS011;3299;42.004;24.868;2022-10-30T00:42:13;2.08;;;1.90;;
6531;SDS011;3299;42.004;24.868;2022-10-30T00:47:31;1.98;;;1.88;;
6531;SDS011;3299;42.004;24.868;2022-10-30T00:50:02;2.20;;;1.80;;
6531;SDS011;3299;42.004;24.868;2022-10-30T00:52:35;2.53;;;2.08;;
6531;SDS011;3299;42.004;24.868;2022-10-30T00:55:09;2.17;;;1.98;;
6531;SDS011;3299;42.004;24.868;2022-10-30T00:57:40;2.20;;;2.00;;
6531;SDS011;3299;42.004;24.868;2022-10-30T01:00:07;1.83;;;1.70;;
6531;SDS011;3299;42.004;24.868;2022-10-30T01:02:33;3.03;;;1.65;;
6531;SDS011;3299;42.004;24.868;2022-10-30T01:04:59;3.53;;;1.77;;
6531;SDS011;3299;42.004;24.868;2022-10-30T01:07:25;2.55;;;1.92;;
6531;SDS011;3299;42.004;24.868;2022-10-30T01:09:51;1.90;;;1.80;;
6531;SDS011;3299;42.004;24.868;2022-10-30T01:12:16;4.60;;;1.85;;
6531;SDS011;3299;42.004;24.868;2022-10-30T01:14:45;3.05;;;2.00;;
6531;SDS011;3299;42.004;24.868;2022-10-30T01:25:42;1.75;;;1.65;;
6531;SDS011;3299;42.004;24.868;2022-10-30T01:28:34;1.92;;;1.83;;
6531;SDS011;3299;42.004;24.868;2022-10-30T01:36:32;1.95;;;1.80;;
6531;SDS011;3299;42.004;24.868;2022-10-30T01:39:11;2.63;;;2.00;;
6531;SDS011;3299;42.004;24.868;2022-10-30T01:41:39;1.80;;;1.70;;
6531;SDS011;3299;42.004;24.868;2022-10-30T01:44:06;2.63;;;1.90;;
6531;SDS011;3299;42.004;24.868;2022-10-30T01:55:11;1.83;;;1.73;;
6531;SDS011;3299;42.004;24.868;2022-10-30T01:58:04;2.63;;;1.77;;
6531;SDS011;3299;42.004;24.868;2022-10-30T02:00:30;1.80;;;1.70;;
6531;SDS011;3299;42.004;24.868;2022-10-30T02:02:55;1.70;;;1.60;;
6531;SDS011;3299;42.004;24.868;2022-10-30T02:05:40;4.28;;;2.22;;
6531;SDS011;3299;42.004;24.868;2022-10-30T02:08:08;2.60;;;1.83;;
6531;SDS011;3299;42.004;24.868;2022-10-30T02:10:34;2.60;;;2.20;;
6531;SDS011;3299;42.004;24.868;2022-10-30T02:13:01;2.30;;;2.20;;
6531;SDS011;3299;42.004;24.868;2022-10-30T02:15:26;2.22;;;2.03;;
6531;SDS011;3299;42.004;24.868;2022-10-30T02:17:53;2.45;;;2.08;;
6531;SDS011;3299;42.004;24.868;2022-10-30T02:20:20;2.08;;;1.85;;
6531;SDS011;3299;42.004;24.868;2022-10-30T02:22:45;5.70;;;1.98;;
6531;SDS011;3299;42.004;24.868;2022-10-30T02:25:11;2.80;;;2.33;;
6531;SDS011;3299;42.004;24.868;2022-10-30T02:27:37;2.58;;;2.10;;
6531;SDS011;3299;42.004;24.868;2022-10-30T02:30:03;2.10;;;1.90;;
6531;SDS011;3299;42.004;24.868;2022-10-30T02:32:29;2.35;;;1.92;;
6531;SDS011;3299;42.004;24.868;2022-10-30T02:34:54;2.60;;;2.00;;
6531;SDS011;3299;42.004;24.868;2022-10-30T02:37:20;2.05;;;1.95;;
6531;SDS011;3299;42.004;24.868;2022-10-30T02:39:45;2.05;;;1.85;;
6531;SDS011;3299;42.004;24.868;2022-10-30T02:42:11;6.05;;;1.83;;
6531;SDS011;3299;42.004;24.868;2022-10-30T02:44:36;3.10;;;1.77;;
6531;SDS011;3299;42.004;24.868;2022-10-30T02:47:02;2.10;;;1.90;;
6531;SDS011;3299;42.004;24.868;2022-10-30T02:49:27;2.65;;;2.00;;
6531;SDS011;3299;42.004;24.868;2022-10-30T02:51:52;4.68;;;1.80;;
6531;SDS011;3299;42.004;24.868;2022-10-30T02:54:18;2.97;;;1.92;;
6531;SDS011;3299;42.004;24.868;2022-10-30T02:56:43;3.33;;;2.00;;
6531;SDS011;3299;42.004;24.868;2022-10-30T02:59:08;3.10;;;2.40;;
6531;SDS011;3299;42.004;24.868;2022-10-30T03:01:34;4.22;;;2.53;;
6531;SDS011;3299;42.004;24.868;2022-10-30T03:04:00;2.60;;;2.10;;
6531;SDS011;3299;42.004;24.868;2022-10-30T03:06:25;6.10;;;2.58;;
6531;SDS011;3299;42.004;24.868;2022-10-30T03:08:51;3.58;;;2.47;;
6531;SDS011;3299;42.004;24.868;2022-10-30T03:11:17;3.78;;;2.53;;
6531;SDS011;3299;42.004;24.868;2022-10-30T03:13:44;3.53;;;2.70;;
6531;SDS011;3299;42.004;24.868;2022-10-30T03:16:21;6.50;;;2.97;;
6531;SDS011;3299;42.004;24.868;2022-10-30T03:18:47;5.38;;;2.67;;
6531;SDS011;3299;42.004;24.868;2022-10-30T03:21:14;7.22;;;3.15;;
6531;SDS011;3299;42.004;24.868;2022-10-30T03:23:42;3.70;;;3.08;;
6531;SDS011;3299;42.004;24.868;2022-10-30T03:26:07;4.38;;;2.28;;
6531;SDS011;3299;42.004;24.868;2022-10-30T03:28:33;3.55;;;2.60;;
6531;SDS011;3299;42.004;24.868;2022-10-30T03:30:59;3.80;;;2.80;;
6531;SDS011;3299;42.004;24.868;2022-10-30T03:33:30;7.85;;;3.60;;
6531;SDS011;3299;42.004;24.868;2022-10-30T03:35:55;5.00;;;2.83;;
6531;SDS011;3299;42.004;24.868;2022-10-30T03:38:21;4.18;;;3.00;;
6531;SDS011;3299;42.004;24.868;2022-10-30T03:40:47;5.53;;;2.85;;
6531;SDS011;3299;42.004;24.868;2022-10-30T03:43:12;4.50;;;2.70;;
6531;SDS011;3299;42.004;24.868;2022-10-30T03:45:37;4.38;;;3.00;;
6531;SDS011;3299;42.004;24.868;2022-10-30T03:48:03;5.88;;;2.70;;
6531;SDS011;3299;42.004;24.868;2022-10-30T03:50:30;3.35;;;2.85;;
6531;SDS011;3299;42.004;24.868;2022-10-30T03:52:56;2.83;;;2.53;;
6531;SDS011;3299;42.004;24.868;2022-10-30T03:55:22;5.93;;;2.95;;
6531;SDS011;3299;42.004;24.868;2022-10-30T03:57:48;4.30;;;3.22;;
6531;SDS011;3299;42.004;24.868;2022-10-30T04:00:14;4.00;;;2.92;;
6531;SDS011;3299;42.004;24.868;2022-10-30T04:02:46;3.00;;;2.70;;
6531;SDS011;3299;42.004;24.868;2022-10-30T04:05:16;3.97;;;3.28;;
6531;SDS011;3299;42.004;24.868;2022-10-30T04:07:44;3.20;;;2.90;;
6531;SDS011;3299;42.004;24.868;2022-10-30T04:10:11;4.03;;;3.05;;
6531;SDS011;3299;42.004;24.868;2022-10-30T04:12:37;5.70;;;3.10;;
6531;SDS011;3299;42.004;24.868;2022-10-30T04:15:04;6.70;;;3.10;;
6531;SDS011;3299;42.004;24.868;2022-10-30T04:17:30;6.05;;;2.75;;
6531;SDS011;3299;42.004;24.868;2022-10-30T04:19:56;4.00;;;2.90;;
6531;SDS011;3299;42.004;24.868;2022-10-30T04:22:22;2.60;;;2.40;;
6531;SDS011;3299;42.004;24.868;2022-10-30T04:24:47;4.30;;;3.05;;
6531;SDS011;3299;42.004;24.868;2022-10-30T04:27:13;3.83;;;2.60;;
6531;SDS011;3299;42.004;24.868;2022-10-30T04:29:39;4.65;;;4.22;;
6531;SDS011;3299;42.004;24.868;2022-10-30T04:32:06;3.97;;;3.58;;
6531;SDS011;3299;42.004;24.868;2022-10-30T04:34:32;3.63;;;3.03;;
6531;SDS011;3299;42.004;24.868;2022-10-30T04:36:57;4.10;;;3.03;;
6531;SDS011;3299;42.004;24.868;2022-10-30T04:39:22;4.45;;;2.88;;
6531;SDS011;3299;42.004;24.868;2022-10-30T04:41:48;4.10;;;2.97;;
6531;SDS011;3299;42.004;24.868;2022-10-30T04:44:13;3.10;;;2.80;;
6531;SDS011;3299;42.004;24.868;2022-10-30T04:46:39;4.25;;;3.00;;
6531;SDS011;3299;42.004;24.868;2022-10-30T04:49:04;4.20;;;2.67;;
6531;SDS011;3299;42.004;24.868;2022-10-30T04:51:30;3.70;;;2.80;;
6531;SDS011;3299;42.004;24.868;2022-10-30T04:53:55;5.47;;;2.88;;
6531;SDS011;3299;42.004;24.868;2022-10-30T04:56:21;3.95;;;2.95;;
6531;SDS011;3299;42.004;24.868;2022-10-30T04:58:46;4.43;;;2.85;;
6531;SDS011;3299;42.004;24.868;2022-10-30T05:01:11;6.82;;;2.90;;
6531;SDS011;3299;42.004;24.868;2022-10-30T05:03:37;4.20;;;3.20;;
6531;SDS011;3299;42.004;24.868;2022-10-30T05:08:37;3.42;;;2.78;;
6531;SDS011;3299;42.004;24.868;2022-10-30T05:11:03;4.53;;;2.97;;
6531;SDS011;3299;42.004;24.868;2022-10-30T05:13:29;7.68;;;3.40;;
6531;SDS011;3299;42.004;24.868;2022-10-30T05:15:55;3.92;;;2.65;;
6531;SDS011;3299;42.004;24.868;2022-10-30T05:18:20;3.40;;;2.72;;
6531;SDS011;3299;42.004;24.868;2022-10-30T05:20:46;3.25;;;2.95;;
6531;SDS011;3299;42.004;24.868;2022-10-30T05:23:11;4.57;;;3.42;;
6531;SDS011;3299;42.004;24.868;2022-10-30T05:25:37;3.47;;;3.17;;
6531;SDS011;3299;42.004;24.868;2022-10-30T05:28:03;3.67;;;2.58;;
6531;SDS011;3299;42.004;24.868;2022-10-30T05:30:31;3.10;;;2.55;;
6531;SDS011;3299;42.004;24.868;2022-10-30T05:32:58;3.20;;;2.60;;
6531;SDS011;3299;42.004;24.868;2022-10-30T05:35:25;2.15;;;1.95;;
6531;SDS011;3299;42.004;24.868;2022-10-30T05:37:51;2.35;;;1.90;;
6531;SDS011;3299;42.004;24.868;2022-10-30T05:40:16;3.55;;;2.10;;
6531;SDS011;3299;42.004;24.868;2022-10-30T05:42:45;2.58;;;1.70;;
6531;SDS011;3299;42.004;24.868;2022-10-30T05:45:11;2.67;;;1.90;;
6531;SDS011;3299;42.004;24.868;2022-10-30T05:47:37;1.52;;;1.42;;
6531;SDS011;3299;42.004;24.868;2022-10-30T05:50:02;1.83;;;1.73;;
6531;SDS011;3299;42.004;24.868;2022-10-30T05:52:28;1.70;;;1.60;;
6531;SDS011;3299;42.004;24.868;2022-10-30T05:54:54;2.17;;;1.88;;
6531;SDS011;3299;42.004;24.868;2022-10-30T05:57:19;1.65;;;1.55;;
6531;SDS011;3299;42.004;24.868;2022-10-30T05:59:45;2.10;;;1.80;;
6531;SDS011;3299;42.004;24.868;2022-10-30T06:02:10;1.92;;;1.83;;
6531;SDS011;3299;42.004;24.868;2022-10-30T06:04:36;1.90;;;1.80;;
6531;SDS011;3299;42.004;24.868;2022-10-30T06:07:01;3.30;;;2.05;;
6531;SDS011;3299;42.004;24.868;2022-10-30T06:09:26;4.57;;;1.83;;
6531;SDS011;3299;42.004;24.868;2022-10-30T06:11:52;2.38;;;1.70;;
6531;SDS011;3299;42.004;24.868;2022-10-30T06:14:18;1.90;;;1.80;;
6531;SDS011;3299;42.004;24.868;2022-10-30T06:16:43;1.63;;;1.52;;
6531;SDS011;3299;42.004;24.868;2022-10-30T06:19:08;3.00;;;1.95;;
6531;SDS011;3299;42.004;24.868;2022-10-30T06:21:34;2.00;;;1.90;;
6531;SDS011;3299;42.004;24.868;2022-10-30T06:23:59;1.95;;;1.70;;
6531;SDS011;3299;42.004;24.868;2022-10-30T06:26:25;1.85;;;1.75;;
6531;SDS011;3299;42.004;24.868;2022-10-30T06:28:50;2.10;;;1.88;;
6531;SDS011;3299;42.004;24.868;2022-10-30T06:31:15;1.95;;;1.80;;
6531;SDS011;3299;42.004;24.868;2022-10-30T06:33:41;2.03;;;1.90;;
6531;SDS011;3299;42.004;24.868;2022-10-30T06:36:06;2.40;;;2.20;;
6531;SDS011;3299;42.004;24.868;2022-10-30T06:38:32;2.35;;;1.58;;
6531;SDS011;3299;42.004;24.868;2022-10-30T06:40:57;1.83;;;1.73;;
6531;SDS011;3299;42.004;24.868;2022-10-30T06:43:23;2.97;;;2.60;;
6531;SDS011;3299;42.004;24.868;2022-10-30T06:45:48;2.22;;;2.03;;
6531;SDS011;3299;42.004;24.868;2022-10-30T06:48:14;2.50;;;2.30;;
6531;SDS011;3299;42.004;24.868;2022-10-30T06:50:39;2.65;;;2.45;;
6531;SDS011;3299;42.004;24.868;2022-10-30T06:53:04;2.92;;;2.10;;
6531;SDS011;3299;42.004;24.868;2022-10-30T06:55:30;2.55;;;1.83;;
6531;SDS011;3299;42.004;24.868;2022-10-30T06:57:55;2.08;;;1.88;;
6531;SDS011;3299;42.004;24.868;2022-10-30T07:00:21;2.22;;;2.00;;
6531;SDS011;3299;42.004;24.868;2022-10-30T07:02:56;2.05;;;1.95;;
6531;SDS011;3299;42.004;24.868;2022-10-30T07:05:22;2.05;;;1.95;;
6531;SDS011;3299;42.004;24.868;2022-10-30T07:07:48;2.47;;;2.10;;
6531;SDS011;3299;42.004;24.868;2022-10-30T07:10:13;5.82;;;3.60;;
6531;SDS011;3299;42.004;24.868;2022-10-30T07:12:39;7.63;;;3.55;;
6531;SDS011;3299;42.004;24.868;2022-10-30T07:15:04;5.22;;;3.03;;
6531;SDS011;3299;42.004;24.868;2022-10-30T07:17:30;3.80;;;2.90;;
6531;SDS011;3299;42.004;24.868;2022-10-30T07:19:55;4.68;;;2.40;;
6531;SDS011;3299;42.004;24.868;2022-10-30T07:22:21;6.43;;;2.80;;
6531;SDS011;3299;42.004;24.868;2022-10-30T07:24:46;4.15;;;2.83;;
6531;SDS011;3299;42.004;24.868;2022-10-30T07:27:12;3.67;;;2.70;;
6531;SDS011;3299;42.004;24.868;2022-10-30T07:29:37;5.57;;;2.40;;
6531;SDS011;3299;42.004;24.868;2022-10-30T07:32:02;2.90;;;1.75;;
6531;SDS011;3299;42.004;24.868;2022-10-30T07:34:28;7.00;;;2.70;;
6531;SDS011;3299;42.004;24.868;2022-10-30T07:36:54;4.40;;;3.22;;
6531;SDS011;3299;42.004;24.868;2022-10-30T07:39:19;4.82;;;3.20;;
6531;SDS011;3299;42.004;24.868;2022-10-30T07:41:45;5.05;;;3.25;;
6531;SDS011;3299;42.004;24.868;2022-10-30T07:44:12;3.80;;;2.58;;
6531;SDS011;3299;42.004;24.868;2022-10-30T07:46:37;3.55;;;2.80;;
6531;SDS011;3299;42.004;24.868;2022-10-30T07:49:03;4.30;;;2.95;;
6531;SDS011;3299;42.004;24.868;2022-10-30T07:51:28;4.07;;;3.38;;
6531;SDS011;3299;42.004;24.868;2022-10-30T07:53:54;9.32;;;3.80;;
6531;SDS011;3299;42.004;24.868;2022-10-30T07:56:19;10.55;;;4.50;;
6531;SDS011;3299;42.004;24.868;2022-10-30T07:58:44;6.78;;;4.50;;
6531;SDS011;3299;42.004;24.868;2022-10-30T08:01:10;9.10;;;4.85;;
6531;SDS011;3299;42.004;24.868;2022-10-30T08:03:35;8.80;;;4.55;;
6531;SDS011;3299;42.004;24.868;2022-10-30T08:06:01;7.70;;;4.72;;
6531;SDS011;3299;42.004;24.868;2022-10-30T08:08:26;13.18;;;4.75;;
6531;SDS011;3299;42.004;24.868;2022-10-30T08:10:52;10.50;;;4.72;;
6531;SDS011;3299;42.004;24.868;2022-10-30T08:13:17;10.35;;;5.45;;
6531;SDS011;3299;42.004;24.868;2022-10-30T08:15:42;11.85;;;4.38;;
6531;SDS011;3299;42.004;24.868;2022-10-30T08:18:08;8.10;;;5.07;;
6531;SDS011;3299;42.004;24.868;2022-10-30T08:20:33;12.68;;;4.35;;
6531;SDS011;3299;42.004;24.868;2022-10-30T08:22:59;7.45;;;4.47;;
6531;SDS011;3299;42.004;24.868;2022-10-30T08:25:28;7.85;;;4.30;;
6531;SDS011;3299;42.004;24.868;2022-10-30T08:30:31;9.95;;;4.30;;
6531;SDS011;3299;42.004;24.868;2022-10-30T08:33:02;9.77;;;4.15;;
6531;SDS011;3299;42.004;24.868;2022-10-30T08:35:29;6.72;;;3.65;;
6531;SDS011;3299;42.004;24.868;2022-10-30T08:37:56;10.35;;;4.10;;
6531;SDS011;3299;42.004;24.868;2022-10-30T08:40:23;9.52;;;4.10;;
6531;SDS011;3299;42.004;24.868;2022-10-30T08:42:50;7.97;;;3.38;;
6531;SDS011;3299;42.004;24.868;2022-10-30T08:45:19;5.20;;;3.30;;
6531;SDS011;3299;42.004;24.868;2022-10-30T08:47:46;6.20;;;3.13;;
6531;SDS011;3299;42.004;24.868;2022-10-30T08:50:12;6.95;;;3.40;;
6531;SDS011;3299;42.004;24.868;2022-10-30T08:52:37;10.65;;;3.78;;
6531;SDS011;3299;42.004;24.868;2022-10-30T08:55:03;6.70;;;3.38;;
6531;SDS011;3299;42.004;24.868;2022-10-30T08:57:31;5.80;;;3.47;;
6531;SDS011;3299;42.004;24.868;2022-10-30T09:00:00;4.88;;;3.25;;
6531;SDS011;3299;42.004;24.868;2022-10-30T09:02:25;7.95;;;3.42;;
6531;SDS011;3299;42.004;24.868;2022-10-30T09:04:51;9.70;;;3.72;;
6531;SDS011;3299;42.004;24.868;2022-10-30T09:07:16;7.38;;;3.47;;
6531;SDS011;3299;42.004;24.868;2022-10-30T09:09:41;4.28;;;3.33;;
6531;SDS011;3299;42.004;24.868;2022-10-30T09:12:07;13.52;;;4.10;;
6531;SDS011;3299;42.004;24.868;2022-10-30T09:14:32;10.55;;;4.32;;
6531;SDS011;3299;42.004;24.868;2022-10-30T09:16:58;11.13;;;4.65;;
6531;SDS011;3299;42.004;24.868;2022-10-30T09:19:23;6.43;;;4.40;;
6531;SDS011;3299;42.004;24.868;2022-10-30T09:21:48;7.93;;;4.30;;
6531;SDS011;3299;42.004;24.868;2022-10-30T09:24:14;8.20;;;4.18;;
6531;SDS011;3299;42.004;24.868;2022-10-30T09:26:39;14.95;;;4.55;;
6531;SDS011;3299;42.004;24.868;2022-10-30T09:29:05;6.03;;;3.92;;
6531;SDS011;3299;42.004;24.868;2022-10-30T09:31:30;10.80;;;4.00;;
6531;SDS011;3299;42.004;24.868;2022-10-30T09:33:55;6.72;;;3.95;;
6531;SDS011;3299;42.004;24.868;2022-10-30T09:36:21;10.98;;;3.40;;
6531;SDS011;3299;42.004;24.868;2022-10-30T09:38:46;10.80;;;4.20;;
6531;SDS011;3299;42.004;24.868;2022-10-30T09:57:52;6.60;;;3.85;;
6531;SDS011;3299;42.004;24.868;2022-10-30T10:06:17;6.78;;;4.07;;
6531;SDS011;3299;42.004;24.868;2022-10-30T10:11:28;6.47;;;3.88;;
6531;SDS011;3299;42.004;24.868;2022-10-30T10:14:36;12.25;;;4.63;;
6531;SDS011;3299;42.004;24.868;2022-10-30T10:16:56;7.65;;;4.63;;
6531;SDS011;3299;42.004;24.868;2022-10-30T10:22:41;7.55;;;4.43;;
6531;SDS011;3299;42.004;24.868;2022-10-30T10:25:14;14.27;;;4.60;;
6531;SDS011;3299;42.004;24.868;2022-10-30T10:30:26;9.45;;;3.88;;
6531;SDS011;3299;42.004;24.868;2022-10-30T10:36:26;9.10;;;3.83;;
6531;SDS011;3299;42.004;24.868;2022-10-30T10:50:02;8.77;;;3.83;;
6531;SDS011;3299;42.004;24.868;2022-10-30T10:52:36;6.85;;;3.58;;
6531;SDS011;3299;42.004;24.868;2022-10-30T10:55:07;7.72;;;3.70;;
6531;SDS011;3299;42.004;24.868;2022-10-30T10:57:40;8.00;;;4.00;;
6531;SDS011;3299;42.004;24.868;2022-10-30T11:00:16;6.10;;;3.50;;
6531;SDS011;3299;42.004;24.868;2022-10-30T11:02:54;7.72;;;4.13;;
6531;SDS011;3299;42.004;24.868;2022-10-30T11:05:38;9.15;;;3.67;;
6531;SDS011;3299;42.004;24.868;2022-10-30T11:10:56;3.78;;;2.90;;
6531;SDS011;3299;42.004;24.868;2022-10-30T11:13:42;9.70;;;3.40;;
6531;SDS011;3299;42.004;24.868;2022-10-30T11:18:54;7.65;;;3.75;;
6531;SDS011;3299;42.004;24.868;2022-10-30T11:21:26;4.05;;;2.80;;
6531;SDS011;3299;42.004;24.868;2022-10-30T11:23:54;3.92;;;3.00;;
6531;SDS011;3299;42.004;24.868;2022-10-30T11:36:49;6.97;;;3.42;;
6531;SDS011;3299;42.004;24.868;2022-10-30T11:39:17;5.47;;;3.28;;
6531;SDS011;3299;42.004;24.868;2022-10-30T11:41:53;5.00;;;3.08;;
6531;SDS011;3299;42.004;24.868;2022-10-30T11:44:20;4.30;;;3.22;;
6531;SDS011;3299;42.004;24.868;2022-10-30T11:46:48;3.58;;;2.90;;
6531;SDS011;3299;42.004;24.868;2022-10-30T11:49:23;6.75;;;4.38;;
6531;SDS011;3299;42.004;24.868;2022-10-30T11:51:52;5.57;;;3.97;;
6531;SDS011;3299;42.004;24.868;2022-10-30T11:54:19;5.63;;;3.40;;
6531;SDS011;3299;42.004;24.868;2022-10-30T11:56:46;7.32;;;2.88;;
6531;SDS011;3299;42.004;24.868;2022-10-30T11:59:17;9.13;;;3.38;;
6531;SDS011;3299;42.004;24.868;2022-10-30T12:02:07;4.25;;;2.97;;
6531;SDS011;3299;42.004;24.868;2022-10-30T12:04:45;4.28;;;2.72;;
6531;SDS011;3299;42.004;24.868;2022-10-30T12:07:17;3.22;;;2.47;;
6531;SDS011;3299;42.004;24.868;2022-10-30T12:09:49;3.28;;;2.30;;
6531;SDS011;3299;42.004;24.868;2022-10-30T12:12:22;7.90;;;2.42;;
6531;SDS011;3299;42.004;24.868;2022-10-30T12:14:48;3.03;;;2.20;;
6531;SDS011;3299;42.004;24.868;2022-10-30T12:17:15;3.15;;;2.70;;
6531;SDS011;3299;42.004;24.868;2022-10-30T12:19:46;3.72;;;2.70;;
6531;SDS011;3299;42.004;24.868;2022-10-30T12:22:34;2.95;;;2.47;;
6531;SDS011;3299;42.004;24.868;2022-10-30T12:25:01;3.05;;;2.70;;
6531;SDS011;3299;42.004;24.868;2022-10-30T12:27:29;3.20;;;2.75;;
6531;SDS011;3299;42.004;24.868;2022-10-30T12:32:42;5.45;;;2.70;;
6531;SDS011;3299;42.004;24.868;2022-10-30T12:35:15;3.55;;;3.22;;
6531;SDS011;3299;42.004;24.868;2022-10-30T12:37:45;2.63;;;2.38;;
6531;SDS011;3299;42.004;24.868;2022-10-30T12:40:17;3.78;;;2.50;;
6531;SDS011;3299;42.004;24.868;2022-10-30T12:43:14;5.18;;;2.20;;
6531;SDS011;3299;42.004;24.868;2022-10-30T12:45:44;2.85;;;2.42;;
6531;SDS011;3299;42.004;24.868;2022-10-30T12:54:22;5.32;;;2.63;;
6531;SDS011;3299;42.004;24.868;2022-10-30T12:57:18;3.80;;;2.47;;
6531;SDS011;3299;42.004;24.868;2022-10-30T13:05:23;2.13;;;2.00;;
6531;SDS011;3299;42.004;24.868;2022-10-30T13:10:33;3.25;;;2.25;;
6531;SDS011;3299;42.004;24.868;2022-10-30T13:15:53;3.80;;;2.55;;
6531;SDS011;3299;42.004;24.868;2022-10-30T13:18:22;2.30;;;2.10;;
6531;SDS011;3299;42.004;24.868;2022-10-30T13:21:30;4.63;;;2.47;;
6531;SDS011;3299;42.004;24.868;2022-10-30T13:29:06;2.83;;;2.50;;
6531;SDS011;3299;42.004;24.868;2022-10-30T13:31:54;5.88;;;2.20;;
6531;SDS011;3299;42.004;24.868;2022-10-30T13:48:18;2.35;;;1.70;;
6531;SDS011;3299;42.004;24.868;2022-10-30T13:50:53;4.15;;;2.15;;
6531;SDS011;3299;42.004;24.868;2022-10-30T13:53:27;2.40;;;2.20;;
6531;SDS011;3299;42.004;24.868;2022-10-30T13:55:58;3.03;;;1.95;;
6531;SDS011;3299;42.004;24.868;2022-10-30T14:01:24;3.25;;;2.10;;
6531;SDS011;3299;42.004;24.868;2022-10-30T14:20:44;4.05;;;2.00;;
6531;SDS011;3299;42.004;24.868;2022-10-30T14:23:23;4.07;;;2.08;;
6531;SDS011;3299;42.004;24.868;2022-10-30T14:28:32;2.67;;;1.83;;
6531;SDS011;3299;42.004;24.868;2022-10-30T14:44:45;5.13;;;2.45;;
6531;SDS011;3299;42.004;24.868;2022-10-30T15:05:42;5.65;;;2.45;;
6531;SDS011;3299;42.004;24.868;2022-10-30T15:11:32;3.13;;;1.38;;
6531;SDS011;3299;42.004;24.868;2022-10-30T15:14:51;2.95;;;1.30;;
6531;SDS011;3299;42.004;24.868;2022-10-30T15:16:59;3.25;;;1.20;;
6531;SDS011;3299;42.004;24.868;2022-10-30T15:19:25;1.85;;;1.42;;
6531;SDS011;3299;42.004;24.868;2022-10-30T15:21:53;3.97;;;1.65;;
6531;SDS011;3299;42.004;24.868;2022-10-30T15:24:24;6.22;;;1.75;;
6531;SDS011;3299;42.004;24.868;2022-10-30T15:26:52;2.15;;;1.50;;
6531;SDS011;3299;42.004;24.868;2022-10-30T15:29:21;2.03;;;1.80;;
6531;SDS011;3299;42.004;24.868;2022-10-30T15:31:59;4.88;;;1.70;;
6531;SDS011;3299;42.004;24.868;2022-10-30T15:34:27;3.00;;;1.90;;
6531;SDS011;3299;42.004;24.868;2022-10-30T15:36:53;1.77;;;1.67;;
6531;SDS011;3299;42.004;24.868;2022-10-30T15:39:19;4.95;;;1.58;;
6531;SDS011;3299;42.004;24.868;2022-10-30T15:44:13;2.83;;;1.92;;
6531;SDS011;3299;42.004;24.868;2022-10-30T15:46:44;3.15;;;1.40;;
6531;SDS011;3299;42.004;24.868;2022-10-30T15:49:16;2.67;;;1.40;;
6531;SDS011;3299;42.004;24.868;2022-10-30T15:51:48;5.25;;;2.00;;
6531;SDS011;3299;42.004;24.868;2022-10-30T15:54:14;1.73;;;1.55;;
6531;SDS011;3299;42.004;24.868;2022-10-30T15:56:45;1.95;;;1.70;;
6531;SDS011;3299;42.004;24.868;2022-10-30T15:59:23;13.73;;;1.85;;
6531;SDS011;3299;42.004;24.868;2022-10-30T16:01:52;1.70;;;1.50;;
6531;SDS011;3299;42.004;24.868;2022-10-30T16:04:22;2.25;;;1.25;;
6531;SDS011;3299;42.004;24.868;2022-10-30T16:06:53;3.80;;;1.23;;
6531;SDS011;3299;42.004;24.868;2022-10-30T16:09:24;6.25;;;2.47;;
6531;SDS011;3299;42.004;24.868;2022-10-30T16:11:51;4.57;;;1.33;;
6531;SDS011;3299;42.004;24.868;2022-10-30T16:14:26;4.45;;;1.77;;
6531;SDS011;3299;42.004;24.868;2022-10-30T16:16:54;2.55;;;1.40;;
6531;SDS011;3299;42.004;24.868;2022-10-30T16:19:27;3.33;;;1.85;;
6531;SDS011;3299;42.004;24.868;2022-10-30T16:21:56;2.22;;;1.50;;
6531;SDS011;3299;42.004;24.868;2022-10-30T16:24:31;1.95;;;1.33;;
6531;SDS011;3299;42.004;24.868;2022-10-30T16:29:29;1.88;;;1.23;;
6531;SDS011;3299;42.004;24.868;2022-10-30T16:31:56;3.50;;;1.35;;
6531;SDS011;3299;42.004;24.868;2022-10-30T16:36:55;3.70;;;1.48;;
6531;SDS011;3299;42.004;24.868;2022-10-30T16:39:21;2.63;;;1.35;;
6531;SDS011;3299;42.004;24.868;2022-10-30T16:41:48;1.70;;;1.17;;
6531;SDS011;3299;42.004;24.868;2022-10-30T16:44:27;3.80;;;1.48;;
6531;SDS011;3299;42.004;24.868;2022-10-30T16:46:55;4.88;;;1.30;;
6531;SDS011;3299;42.004;24.868;2022-10-30T16:49:30;1.77;;;1.20;;
6531;SDS011;3299;42.004;24.868;2022-10-30T16:52:02;1.55;;;1.25;;
6531;SDS011;3299;42.004;24.868;2022-10-30T16:54:30;1.95;;;1.60;;
6531;SDS011;3299;42.004;24.868;2022-10-30T16:56:59;3.90;;;1.05;;
6531;SDS011;3299;42.004;24.868;2022-10-30T16:59:34;2.08;;;1.02;;
6531;SDS011;3299;42.004;24.868;2022-10-30T17:02:11;2.40;;;1.77;;
6531;SDS011;3299;42.004;24.868;2022-10-30T17:04:41;5.57;;;1.73;;
6531;SDS011;3299;42.004;24.868;2022-10-30T17:07:17;2.53;;;1.50;;
6531;SDS011;3299;42.004;24.868;2022-10-30T17:09:45;3.17;;;1.83;;
6531;SDS011;3299;42.004;24.868;2022-10-30T17:12:13;2.08;;;1.30;;
6531;SDS011;3299;42.004;24.868;2022-10-30T17:20:05;2.83;;;1.42;;
6531;SDS011;3299;42.004;24.868;2022-10-30T17:22:36;6.50;;;2.17;;
6531;SDS011;3299;42.004;24.868;2022-10-30T17:25:13;7.75;;;2.00;;
6531;SDS011;3299;42.004;24.868;2022-10-30T17:27:42;3.47;;;2.05;;
6531;SDS011;3299;42.004;24.868;2022-10-30T17:30:30;1.85;;;1.25;;
6531;SDS011;3299;42.004;24.868;2022-10-30T17:32:59;3.15;;;1.70;;
6531;SDS011;3299;42.004;24.868;2022-10-30T17:35:26;2.78;;;1.65;;
6531;SDS011;3299;42.004;24.868;2022-10-30T17:37:52;1.45;;;1.33;;
6531;SDS011;3299;42.004;24.868;2022-10-30T17:40:17;3.45;;;1.30;;
6531;SDS011;3299;42.004;24.868;2022-10-30T17:42:44;4.00;;;1.77;;
6531;SDS011;3299;42.004;24.868;2022-10-30T17:45:12;4.72;;;1.60;;
6531;SDS011;3299;42.004;24.868;2022-10-30T17:47:38;1.30;;;1.20;;
6531;SDS011;3299;42.004;24.868;2022-10-30T17:50:04;5.22;;;1.60;;
6531;SDS011;3299;42.004;24.868;2022-10-30T17:52:30;1.90;;;1.70;;
6531;SDS011;3299;42.004;24.868;2022-10-30T17:54:57;2.80;;;2.35;;
6531;SDS011;3299;42.004;24.868;2022-10-30T17:57:22;5.82;;;1.75;;
6531;SDS011;3299;42.004;24.868;2022-10-30T17:59:51;4.80;;;1.60;;
6531;SDS011;3299;42.004;24.868;2022-10-30T18:02:18;3.22;;;1.33;;
6531;SDS011;3299;42.004;24.868;2022-10-30T18:04:45;2.33;;;1.70;;
6531;SDS011;3299;42.004;24.868;2022-10-30T18:07:12;4.10;;;1.50;;
6531;SDS011;3299;42.004;24.868;2022-10-30T18:09:39;2.70;;;1.75;;
6531;SDS011;3299;42.004;24.868;2022-10-30T18:12:05;6.45;;;2.30;;
6531;SDS011;3299;42.004;24.868;2022-10-30T18:14:32;2.13;;;1.60;;
6531;SDS011;3299;42.004;24.868;2022-10-30T18:16:57;6.72;;;1.95;;
6531;SDS011;3299;42.004;24.868;2022-10-30T18:19:23;3.63;;;1.38;;
6531;SDS011;3299;42.004;24.868;2022-10-30T18:21:48;3.90;;;1.80;;
6531;SDS011;3299;42.004;24.868;2022-10-30T18:24:16;3.33;;;1.77;;
6531;SDS011;3299;42.004;24.868;2022-10-30T18:26:42;2.40;;;1.50;;
6531;SDS011;3299;42.004;24.868;2022-10-30T18:29:09;3.90;;;1.60;;